sensor_id;sensor_type;location;lat;lon;timestamp;temperature;humidity
54192;DHT22;40101;53.002;6.488;2022-10-16T00:01:11;12.10;99.90
54192;DHT22;40101;53.002;6.488;2022-10-16T00:03:38;12.10;99.90
54192;DHT22;40101;53.002;6.488;2022-10-16T00:06:05;12.10;99.90
54192;DHT22;40101;53.002;6.488;2022-10-16T00:08:31;12.20;99.90
54192;DHT22;40101;53.002;6.488;2022-10-16T00:11:12;12.10;99.90
54192;DHT22;40101;53.002;6.488;2022-10-16T00:13:40;12.10;99.90
54192;DHT22;40101;53.002;6.488;2022-10-16T00:16:07;12.20;99.90
54192;DHT22;40101;53.002;6.488;2022-10-16T00:18:33;12.20;99.90
54192;DHT22;40101;53.002;6.488;2022-10-16T00:21:12;12.20;99.90
54192;DHT22;40101;53.002;6.488;2022-10-16T00:23:38;12.10;99.90
54192;DHT22;40101;53.002;6.488;2022-10-16T00:26:11;12.20;99.90
54192;DHT22;40101;53.002;6.488;2022-10-16T00:28:37;12.20;99.90
54192;DHT22;40101;53.002;6.488;2022-10-16T00:31:09;12.20;99.90
54192;DHT22;40101;53.002;6.488;2022-10-16T00:33:36;12.20;99.90
54192;DHT22;40101;53.002;6.488;2022-10-16T00:36:03;12.20;99.90
54192;DHT22;40101;53.002;6.488;2022-10-16T00:38:29;12.30;99.90
54192;DHT22;40101;53.002;6.488;2022-10-16T00:40:55;12.30;99.90
54192;DHT22;40101;53.002;6.488;2022-10-16T00:43:42;12.30;99.90
54192;DHT22;40101;53.002;6.488;2022-10-16T00:46:24;12.40;99.90
54192;DHT22;40101;53.002;6.488;2022-10-16T00:48:55;12.30;99.90
54192;DHT22;40101;53.002;6.488;2022-10-16T00:51:26;12.40;99.90
54192;DHT22;40101;53.002;6.488;2022-10-16T00:53:52;12.40;99.90
54192;DHT22;40101;53.002;6.488;2022-10-16T00:56:18;12.40;99.90
54192;DHT22;40101;53.002;6.488;2022-10-16T00:58:44;12.40;99.90
54192;DHT22;40101;53.002;6.488;2022-10-16T01:01:09;12.40;99.90
54192;DHT22;40101;53.002;6.488;2022-10-16T01:03:36;12.40;99.90
54192;DHT22;40101;53.002;6.488;2022-10-16T01:06:22;12.40;99.90
54192;DHT22;40101;53.002;6.488;2022-10-16T01:11:48;12.50;99.90
54192;DHT22;40101;53.002;6.488;2022-10-16T01:14:26;12.50;99.90
54192;DHT22;40101;53.002;6.488;2022-10-16T01:17:06;12.50;99.90
54192;DHT22;40101;53.002;6.488;2022-10-16T01:19:58;12.50;99.90
54192;DHT22;40101;53.002;6.488;2022-10-16T01:28:11;12.50;99.90
54192;DHT22;40101;53.002;6.488;2022-10-16T01:30:40;12.50;99.90
54192;DHT22;40101;53.002;6.488;2022-10-16T01:33:18;12.60;99.90
54192;DHT22;40101;53.002;6.488;2022-10-16T01:35:49;12.60;99.90
54192;DHT22;40101;53.002;6.488;2022-10-16T01:38:21;12.60;99.90
54192;DHT22;40101;53.002;6.488;2022-10-16T01:40:52;12.70;99.90
54192;DHT22;40101;53.002;6.488;2022-10-16T01:43:31;12.70;99.90
54192;DHT22;40101;53.002;6.488;2022-10-16T01:45:58;12.70;99.90
54192;DHT22;40101;53.002;6.488;2022-10-16T01:48:24;12.70;99.90
54192;DHT22;40101;53.002;6.488;2022-10-16T01:51:08;12.70;99.90
54192;DHT22;40101;53.002;6.488;2022-10-16T01:53:35;12.60;99.90
54192;DHT22;40101;53.002;6.488;2022-10-16T01:56:04;12.60;99.90
54192;DHT22;40101;53.002;6.488;2022-10-16T01:58:35;12.60;99.90
54192;DHT22;40101;53.002;6.488;2022-10-16T02:01:04;12.60;99.90
54192;DHT22;40101;53.002;6.488;2022-10-16T02:03:33;12.60;99.90
54192;DHT22;40101;53.002;6.488;2022-10-16T02:05:59;12.60;99.90
54192;DHT22;40101;53.002;6.488;2022-10-16T02:08:27;12.70;99.90
54192;DHT22;40101;53.002;6.488;2022-10-16T02:10:55;12.70;99.90
54192;DHT22;40101;53.002;6.488;2022-10-16T02:13:45;12.70;99.90
54192;DHT22;40101;53.002;6.488;2022-10-16T02:16:11;12.70;99.90
54192;DHT22;40101;53.002;6.488;2022-10-16T02:18:38;12.70;99.90
54192;DHT22;40101;53.002;6.488;2022-10-16T02:21:43;12.70;99.90
54192;DHT22;40101;53.002;6.488;2022-10-16T02:24:20;12.70;99.90
54192;DHT22;40101;53.002;6.488;2022-10-16T02:26:52;12.70;99.90
54192;DHT22;40101;53.002;6.488;2022-10-16T02:29:22;12.70;99.90
54192;DHT22;40101;53.002;6.488;2022-10-16T02:31:51;12.90;99.90
54192;DHT22;40101;53.002;6.488;2022-10-16T02:34:20;12.70;99.90
54192;DHT22;40101;53.002;6.488;2022-10-16T02:36:47;12.80;99.90
54192;DHT22;40101;53.002;6.488;2022-10-16T02:39:13;12.80;99.90
54192;DHT22;40101;53.002;6.488;2022-10-16T02:41:39;12.80;99.90
54192;DHT22;40101;53.002;6.488;2022-10-16T02:44:05;12.80;99.90
54192;DHT22;40101;53.002;6.488;2022-10-16T02:46:30;12.80;99.90
54192;DHT22;40101;53.002;6.488;2022-10-16T02:48:56;12.80;99.90
54192;DHT22;40101;53.002;6.488;2022-10-16T02:51:22;12.80;99.90
54192;DHT22;40101;53.002;6.488;2022-10-16T02:53:47;12.80;99.90
54192;DHT22;40101;53.002;6.488;2022-10-16T02:56:13;12.80;99.90
54192;DHT22;40101;53.002;6.488;2022-10-16T02:58:38;12.80;99.90
54192;DHT22;40101;53.002;6.488;2022-10-16T03:01:04;12.80;99.90
54192;DHT22;40101;53.002;6.488;2022-10-16T03:03:30;12.80;99.90
54192;DHT22;40101;53.002;6.488;2022-10-16T03:05:55;12.80;99.90
54192;DHT22;40101;53.002;6.488;2022-10-16T03:08:21;12.80;99.90
54192;DHT22;40101;53.002;6.488;2022-10-16T03:10:49;12.80;99.90
54192;DHT22;40101;53.002;6.488;2022-10-16T03:13:15;12.80;99.90
54192;DHT22;40101;53.002;6.488;2022-10-16T03:15:40;12.80;99.90
54192;DHT22;40101;53.002;6.488;2022-10-16T03:18:06;12.80;99.90
54192;DHT22;40101;53.002;6.488;2022-10-16T03:20:32;12.80;99.90
54192;DHT22;40101;53.002;6.488;2022-10-16T03:22:58;12.80;99.90
54192;DHT22;40101;53.002;6.488;2022-10-16T03:25:23;12.80;99.90
54192;DHT22;40101;53.002;6.488;2022-10-16T03:27:49;12.70;99.90
54192;DHT22;40101;53.002;6.488;2022-10-16T03:30:15;12.80;99.90
54192;DHT22;40101;53.002;6.488;2022-10-16T03:32:42;12.70;99.90
54192;DHT22;40101;53.002;6.488;2022-10-16T03:35:08;12.70;99.90
54192;DHT22;40101;53.002;6.488;2022-10-16T03:37:34;12.70;99.90
54192;DHT22;40101;53.002;6.488;2022-10-16T03:39:59;12.80;99.90
54192;DHT22;40101;53.002;6.488;2022-10-16T03:42:25;12.70;99.90
54192;DHT22;40101;53.002;6.488;2022-10-16T03:44:51;12.70;99.90
54192;DHT22;40101;53.002;6.488;2022-10-16T03:47:16;12.70;99.90
54192;DHT22;40101;53.002;6.488;2022-10-16T03:49:45;12.70;99.90
54192;DHT22;40101;53.002;6.488;2022-10-16T03:52:11;12.70;99.90
54192;DHT22;40101;53.002;6.488;2022-10-16T03:54:37;12.70;99.90
54192;DHT22;40101;53.002;6.488;2022-10-16T03:57:02;12.60;99.90
54192;DHT22;40101;53.002;6.488;2022-10-16T03:59:28;12.60;99.90
54192;DHT22;40101;53.002;6.488;2022-10-16T04:01:53;12.60;99.90
54192;DHT22;40101;53.002;6.488;2022-10-16T04:04:19;12.60;99.90
54192;DHT22;40101;53.002;6.488;2022-10-16T04:06:45;12.60;99.90
54192;DHT22;40101;53.002;6.488;2022-10-16T04:09:10;12.60;99.90
54192;DHT22;40101;53.002;6.488;2022-10-16T04:11:36;12.60;99.90
54192;DHT22;40101;53.002;6.488;2022-10-16T04:14:01;12.60;99.90
54192;DHT22;40101;53.002;6.488;2022-10-16T04:16:27;12.60;99.90
54192;DHT22;40101;53.002;6.488;2022-10-16T04:18:52;12.70;99.90
54192;DHT22;40101;53.002;6.488;2022-10-16T04:21:18;12.70;99.90
54192;DHT22;40101;53.002;6.488;2022-10-16T04:23:44;12.60;99.90
54192;DHT22;40101;53.002;6.488;2022-10-16T04:26:09;12.60;99.90
54192;DHT22;40101;53.002;6.488;2022-10-16T04:28:36;12.60;99.90
54192;DHT22;40101;53.002;6.488;2022-10-16T04:31:05;12.50;99.90
54192;DHT22;40101;53.002;6.488;2022-10-16T04:33:31;12.60;99.90
54192;DHT22;40101;53.002;6.488;2022-10-16T04:35:58;12.50;99.90
54192;DHT22;40101;53.002;6.488;2022-10-16T04:38:24;12.40;99.90
54192;DHT22;40101;53.002;6.488;2022-10-16T04:40:49;12.40;99.90
54192;DHT22;40101;53.002;6.488;2022-10-16T04:43:15;12.30;99.90
54192;DHT22;40101;53.002;6.488;2022-10-16T04:45:41;12.40;99.90
54192;DHT22;40101;53.002;6.488;2022-10-16T04:48:07;12.40;99.90
54192;DHT22;40101;53.002;6.488;2022-10-16T04:50:32;12.40;99.90
54192;DHT22;40101;53.002;6.488;2022-10-16T04:52:58;12.40;99.90
54192;DHT22;40101;53.002;6.488;2022-10-16T04:55:23;12.50;99.90
54192;DHT22;40101;53.002;6.488;2022-10-16T04:57:49;12.50;99.90
54192;DHT22;40101;53.002;6.488;2022-10-16T05:00:15;12.50;99.90
54192;DHT22;40101;53.002;6.488;2022-10-16T05:02:40;12.50;99.90
54192;DHT22;40101;53.002;6.488;2022-10-16T05:05:06;12.60;99.90
54192;DHT22;40101;53.002;6.488;2022-10-16T05:07:32;12.60;99.90
54192;DHT22;40101;53.002;6.488;2022-10-16T05:09:57;12.70;99.90
54192;DHT22;40101;53.002;6.488;2022-10-16T05:12:23;12.60;99.90
54192;DHT22;40101;53.002;6.488;2022-10-16T05:14:49;12.70;99.90
54192;DHT22;40101;53.002;6.488;2022-10-16T05:17:14;12.60;99.90
54192;DHT22;40101;53.002;6.488;2022-10-16T05:19:40;12.60;99.90
54192;DHT22;40101;53.002;6.488;2022-10-16T05:22:05;12.70;99.90
54192;DHT22;40101;53.002;6.488;2022-10-16T05:24:31;12.60;99.90
54192;DHT22;40101;53.002;6.488;2022-10-16T05:26:57;12.60;99.90
54192;DHT22;40101;53.002;6.488;2022-10-16T05:29:22;12.60;99.90
54192;DHT22;40101;53.002;6.488;2022-10-16T05:31:51;12.70;99.90
54192;DHT22;40101;53.002;6.488;2022-10-16T05:34:17;12.60;99.90
54192;DHT22;40101;53.002;6.488;2022-10-16T05:36:42;12.60;99.90
54192;DHT22;40101;53.002;6.488;2022-10-16T05:39:11;12.70;99.90
54192;DHT22;40101;53.002;6.488;2022-10-16T05:41:36;12.70;99.90
54192;DHT22;40101;53.002;6.488;2022-10-16T05:44:05;12.70;99.90
54192;DHT22;40101;53.002;6.488;2022-10-16T05:46:32;12.60;99.90
54192;DHT22;40101;53.002;6.488;2022-10-16T05:48:58;12.70;99.90
54192;DHT22;40101;53.002;6.488;2022-10-16T05:51:23;12.60;99.90
54192;DHT22;40101;53.002;6.488;2022-10-16T05:53:49;12.60;99.90
54192;DHT22;40101;53.002;6.488;2022-10-16T05:56:15;12.60;99.90
54192;DHT22;40101;53.002;6.488;2022-10-16T05:58:41;12.60;99.90
54192;DHT22;40101;53.002;6.488;2022-10-16T06:01:12;12.60;99.90
54192;DHT22;40101;53.002;6.488;2022-10-16T06:03:39;12.70;99.90
54192;DHT22;40101;53.002;6.488;2022-10-16T06:08:34;12.70;99.90
54192;DHT22;40101;53.002;6.488;2022-10-16T06:11:02;12.70;99.90
54192;DHT22;40101;53.002;6.488;2022-10-16T06:13:27;12.70;99.90
54192;DHT22;40101;53.002;6.488;2022-10-16T06:15:56;12.70;99.90
54192;DHT22;40101;53.002;6.488;2022-10-16T06:18:22;12.70;99.90
54192;DHT22;40101;53.002;6.488;2022-10-16T06:20:47;12.70;99.90
54192;DHT22;40101;53.002;6.488;2022-10-16T06:23:13;12.70;99.90
54192;DHT22;40101;53.002;6.488;2022-10-16T06:25:39;12.70;99.90
54192;DHT22;40101;53.002;6.488;2022-10-16T06:28:04;12.80;99.90
54192;DHT22;40101;53.002;6.488;2022-10-16T06:30:30;12.80;99.90
54192;DHT22;40101;53.002;6.488;2022-10-16T06:32:55;12.80;99.90
54192;DHT22;40101;53.002;6.488;2022-10-16T06:35:21;12.80;99.90
54192;DHT22;40101;53.002;6.488;2022-10-16T06:37:47;12.70;99.90
54192;DHT22;40101;53.002;6.488;2022-10-16T06:40:13;12.80;99.90
54192;DHT22;40101;53.002;6.488;2022-10-16T06:42:40;12.80;99.90
54192;DHT22;40101;53.002;6.488;2022-10-16T06:45:06;12.90;99.90
54192;DHT22;40101;53.002;6.488;2022-10-16T06:47:31;12.90;99.90
54192;DHT22;40101;53.002;6.488;2022-10-16T06:49:57;12.90;99.90
54192;DHT22;40101;53.002;6.488;2022-10-16T06:52:23;12.90;99.90
54192;DHT22;40101;53.002;6.488;2022-10-16T06:54:49;13.00;99.90
54192;DHT22;40101;53.002;6.488;2022-10-16T06:57:15;12.90;99.90
54192;DHT22;40101;53.002;6.488;2022-10-16T06:59:41;13.00;99.90
54192;DHT22;40101;53.002;6.488;2022-10-16T07:02:08;13.00;99.90
54192;DHT22;40101;53.002;6.488;2022-10-16T07:04:34;13.00;99.90
54192;DHT22;40101;53.002;6.488;2022-10-16T07:07:00;13.10;99.90
54192;DHT22;40101;53.002;6.488;2022-10-16T07:09:26;13.10;99.90
54192;DHT22;40101;53.002;6.488;2022-10-16T07:11:52;13.10;99.90
54192;DHT22;40101;53.002;6.488;2022-10-16T07:14:20;13.20;99.90
54192;DHT22;40101;53.002;6.488;2022-10-16T07:16:46;13.30;99.90
54192;DHT22;40101;53.002;6.488;2022-10-16T07:19:13;13.30;99.90
54192;DHT22;40101;53.002;6.488;2022-10-16T07:21:41;13.30;99.90
54192;DHT22;40101;53.002;6.488;2022-10-16T07:24:12;13.30;99.90
54192;DHT22;40101;53.002;6.488;2022-10-16T07:26:38;13.50;99.90
54192;DHT22;40101;53.002;6.488;2022-10-16T07:29:16;13.40;99.90
54192;DHT22;40101;53.002;6.488;2022-10-16T07:31:44;13.40;99.90
54192;DHT22;40101;53.002;6.488;2022-10-16T07:34:11;13.40;99.90
54192;DHT22;40101;53.002;6.488;2022-10-16T07:36:37;13.40;99.90
54192;DHT22;40101;53.002;6.488;2022-10-16T07:39:03;13.30;99.90
54192;DHT22;40101;53.002;6.488;2022-10-16T07:41:28;13.30;99.90
54192;DHT22;40101;53.002;6.488;2022-10-16T07:43:55;13.30;99.90
54192;DHT22;40101;53.002;6.488;2022-10-16T07:46:24;13.40;99.90
54192;DHT22;40101;53.002;6.488;2022-10-16T07:48:50;13.50;99.90
54192;DHT22;40101;53.002;6.488;2022-10-16T07:51:18;13.60;99.90
54192;DHT22;40101;53.002;6.488;2022-10-16T07:53:44;13.70;99.90
54192;DHT22;40101;53.002;6.488;2022-10-16T07:56:10;14.10;99.90
54192;DHT22;40101;53.002;6.488;2022-10-16T07:58:37;14.50;99.90
54192;DHT22;40101;53.002;6.488;2022-10-16T08:01:07;14.90;99.90
54192;DHT22;40101;53.002;6.488;2022-10-16T08:03:33;15.10;99.90
54192;DHT22;40101;53.002;6.488;2022-10-16T08:05:59;15.20;99.90
54192;DHT22;40101;53.002;6.488;2022-10-16T08:08:25;15.10;99.90
54192;DHT22;40101;53.002;6.488;2022-10-16T08:10:52;15.00;99.90
54192;DHT22;40101;53.002;6.488;2022-10-16T08:13:18;14.80;99.90
54192;DHT22;40101;53.002;6.488;2022-10-16T08:15:45;14.80;99.90
54192;DHT22;40101;53.002;6.488;2022-10-16T08:18:12;14.80;99.90
54192;DHT22;40101;53.002;6.488;2022-10-16T08:20:39;14.90;99.90
54192;DHT22;40101;53.002;6.488;2022-10-16T08:23:05;14.80;99.90
54192;DHT22;40101;53.002;6.488;2022-10-16T08:25:31;14.80;99.90
54192;DHT22;40101;53.002;6.488;2022-10-16T08:27:56;14.80;99.90
54192;DHT22;40101;53.002;6.488;2022-10-16T08:30:23;14.90;99.90
54192;DHT22;40101;53.002;6.488;2022-10-16T08:32:49;15.50;99.90
54192;DHT22;40101;53.002;6.488;2022-10-16T08:35:15;16.40;99.90
54192;DHT22;40101;53.002;6.488;2022-10-16T08:37:42;16.50;99.90
54192;DHT22;40101;53.002;6.488;2022-10-16T08:40:29;16.40;99.90
54192;DHT22;40101;53.002;6.488;2022-10-16T08:48:50;15.70;99.90
54192;DHT22;40101;53.002;6.488;2022-10-16T08:51:23;16.00;99.90
54192;DHT22;40101;53.002;6.488;2022-10-16T08:53:51;16.60;99.90
54192;DHT22;40101;53.002;6.488;2022-10-16T08:56:18;17.30;99.90
54192;DHT22;40101;53.002;6.488;2022-10-16T08:58:45;17.80;99.90
54192;DHT22;40101;53.002;6.488;2022-10-16T09:01:17;18.40;99.90
54192;DHT22;40101;53.002;6.488;2022-10-16T09:06:56;18.80;99.90
54192;DHT22;40101;53.002;6.488;2022-10-16T09:20:44;20.00;99.90
54192;DHT22;40101;53.002;6.488;2022-10-16T09:23:15;20.40;99.90
54192;DHT22;40101;53.002;6.488;2022-10-16T09:25:44;20.80;99.90
54192;DHT22;40101;53.002;6.488;2022-10-16T09:28:10;21.10;99.90
54192;DHT22;40101;53.002;6.488;2022-10-16T09:30:37;21.20;99.90
54192;DHT22;40101;53.002;6.488;2022-10-16T09:33:04;21.40;99.90
54192;DHT22;40101;53.002;6.488;2022-10-16T09:35:44;21.70;99.90
54192;DHT22;40101;53.002;6.488;2022-10-16T09:38:22;22.00;99.90
54192;DHT22;40101;53.002;6.488;2022-10-16T09:40:48;22.30;99.90
54192;DHT22;40101;53.002;6.488;2022-10-16T09:43:19;22.30;99.90
54192;DHT22;40101;53.002;6.488;2022-10-16T09:46:04;22.00;99.90
54192;DHT22;40101;53.002;6.488;2022-10-16T09:48:50;21.50;99.90
54192;DHT22;40101;53.002;6.488;2022-10-16T09:51:22;20.50;99.90
54192;DHT22;40101;53.002;6.488;2022-10-16T09:53:48;19.60;99.90
54192;DHT22;40101;53.002;6.488;2022-10-16T09:56:26;19.10;99.90
54192;DHT22;40101;53.002;6.488;2022-10-16T09:58:54;18.50;99.90
54192;DHT22;40101;53.002;6.488;2022-10-16T10:01:22;18.70;99.90
54192;DHT22;40101;53.002;6.488;2022-10-16T10:03:49;18.80;99.90
54192;DHT22;40101;53.002;6.488;2022-10-16T10:06:26;18.90;99.90
54192;DHT22;40101;53.002;6.488;2022-10-16T10:09:16;19.40;99.90
54192;DHT22;40101;53.002;6.488;2022-10-16T10:11:49;19.90;99.90
54192;DHT22;40101;53.002;6.488;2022-10-16T10:14:20;19.80;99.90
54192;DHT22;40101;53.002;6.488;2022-10-16T10:16:47;19.40;99.90
54192;DHT22;40101;53.002;6.488;2022-10-16T10:19:18;19.00;99.90
54192;DHT22;40101;53.002;6.488;2022-10-16T10:21:44;18.60;99.90
54192;DHT22;40101;53.002;6.488;2022-10-16T10:24:14;18.40;99.90
54192;DHT22;40101;53.002;6.488;2022-10-16T10:26:58;18.20;99.90
54192;DHT22;40101;53.002;6.488;2022-10-16T10:34:50;18.10;99.90
54192;DHT22;40101;53.002;6.488;2022-10-16T10:42:57;17.70;99.90
54192;DHT22;40101;53.002;6.488;2022-10-16T10:45:35;17.80;99.90
54192;DHT22;40101;53.002;6.488;2022-10-16T10:48:19;17.70;99.90
54192;DHT22;40101;53.002;6.488;2022-10-16T10:51:06;17.60;99.90
54192;DHT22;40101;53.002;6.488;2022-10-16T11:05:19;17.60;99.90
54192;DHT22;40101;53.002;6.488;2022-10-16T11:07:55;17.50;99.90
54192;DHT22;40101;53.002;6.488;2022-10-16T11:10:25;17.50;99.90
54192;DHT22;40101;53.002;6.488;2022-10-16T11:12:58;17.40;99.90
54192;DHT22;40101;53.002;6.488;2022-10-16T11:15:33;17.50;99.90
54192;DHT22;40101;53.002;6.488;2022-10-16T11:18:07;17.80;99.90
54192;DHT22;40101;53.002;6.488;2022-10-16T11:20:50;18.10;99.90
54192;DHT22;40101;53.002;6.488;2022-10-16T11:23:26;18.30;99.90
54192;DHT22;40101;53.002;6.488;2022-10-16T11:25:57;18.50;99.90
54192;DHT22;40101;53.002;6.488;2022-10-16T11:28:32;18.40;99.90
54192;DHT22;40101;53.002;6.488;2022-10-16T11:31:10;18.40;99.90
54192;DHT22;40101;53.002;6.488;2022-10-16T11:33:46;18.40;99.90
54192;DHT22;40101;53.002;6.488;2022-10-16T11:39:16;18.40;99.90
54192;DHT22;40101;53.002;6.488;2022-10-16T11:41:47;18.40;99.90
54192;DHT22;40101;53.002;6.488;2022-10-16T11:49:55;18.00;99.90
54192;DHT22;40101;53.002;6.488;2022-10-16T11:52:35;18.00;99.90
54192;DHT22;40101;53.002;6.488;2022-10-16T11:55:21;18.00;99.90
54192;DHT22;40101;53.002;6.488;2022-10-16T11:57:56;18.00;99.90
54192;DHT22;40101;53.002;6.488;2022-10-16T12:00:34;18.00;99.90
54192;DHT22;40101;53.002;6.488;2022-10-16T12:03:47;18.10;99.90
54192;DHT22;40101;53.002;6.488;2022-10-16T12:08:51;18.30;99.90
54192;DHT22;40101;53.002;6.488;2022-10-16T12:14:02;18.30;99.90
54192;DHT22;40101;53.002;6.488;2022-10-16T12:16:28;18.30;99.90
54192;DHT22;40101;53.002;6.488;2022-10-16T12:19:13;18.30;99.90
54192;DHT22;40101;53.002;6.488;2022-10-16T12:21:39;18.30;99.90
54192;DHT22;40101;53.002;6.488;2022-10-16T12:24:06;18.20;99.90
54192;DHT22;40101;53.002;6.488;2022-10-16T12:26:33;18.30;99.90
54192;DHT22;40101;53.002;6.488;2022-10-16T12:29:23;18.30;99.90
54192;DHT22;40101;53.002;6.488;2022-10-16T12:31:50;18.40;99.90
54192;DHT22;40101;53.002;6.488;2022-10-16T12:36:50;18.30;99.90
54192;DHT22;40101;53.002;6.488;2022-10-16T12:39:24;18.20;99.90
54192;DHT22;40101;53.002;6.488;2022-10-16T12:44:51;17.90;99.90
54192;DHT22;40101;53.002;6.488;2022-10-16T12:47:36;17.60;99.90
54192;DHT22;40101;53.002;6.488;2022-10-16T12:50:21;17.40;99.90
54192;DHT22;40101;53.002;6.488;2022-10-16T12:52:48;17.40;99.90
54192;DHT22;40101;53.002;6.488;2022-10-16T12:55:19;17.50;99.90
54192;DHT22;40101;53.002;6.488;2022-10-16T13:00:26;17.80;99.90
54192;DHT22;40101;53.002;6.488;2022-10-16T13:03:22;17.90;99.90
54192;DHT22;40101;53.002;6.488;2022-10-16T13:11:23;18.10;99.90
54192;DHT22;40101;53.002;6.488;2022-10-16T13:22:26;18.00;99.90
54192;DHT22;40101;53.002;6.488;2022-10-16T13:28:03;18.10;99.90
54192;DHT22;40101;53.002;6.488;2022-10-16T13:30:34;18.10;99.90
54192;DHT22;40101;53.002;6.488;2022-10-16T13:33:15;18.00;99.90
54192;DHT22;40101;53.002;6.488;2022-10-16T13:35:52;18.00;99.90
54192;DHT22;40101;53.002;6.488;2022-10-16T13:38:23;18.00;99.90
54192;DHT22;40101;53.002;6.488;2022-10-16T13:43:54;17.90;99.90
54192;DHT22;40101;53.002;6.488;2022-10-16T13:46:15;17.70;99.90
54192;DHT22;40101;53.002;6.488;2022-10-16T13:48:41;17.60;99.90
54192;DHT22;40101;53.002;6.488;2022-10-16T13:51:14;17.60;99.90
54192;DHT22;40101;53.002;6.488;2022-10-16T13:53:40;17.70;99.90
54192;DHT22;40101;53.002;6.488;2022-10-16T13:56:10;17.70;99.90
54192;DHT22;40101;53.002;6.488;2022-10-16T13:58:36;17.80;99.90
54192;DHT22;40101;53.002;6.488;2022-10-16T14:01:05;17.80;99.90
54192;DHT22;40101;53.002;6.488;2022-10-16T14:03:32;17.70;99.90
54192;DHT22;40101;53.002;6.488;2022-10-16T14:06:01;17.70;99.90
54192;DHT22;40101;53.002;6.488;2022-10-16T14:08:29;17.70;99.90
54192;DHT22;40101;53.002;6.488;2022-10-16T14:11:00;17.50;99.90
54192;DHT22;40101;53.002;6.488;2022-10-16T14:13:31;17.40;99.90
54192;DHT22;40101;53.002;6.488;2022-10-16T14:16:01;17.40;99.90
54192;DHT22;40101;53.002;6.488;2022-10-16T14:18:28;17.40;99.90
54192;DHT22;40101;53.002;6.488;2022-10-16T14:20:54;17.50;99.90
54192;DHT22;40101;53.002;6.488;2022-10-16T14:23:23;17.40;99.90
54192;DHT22;40101;53.002;6.488;2022-10-16T14:25:53;17.50;99.90
54192;DHT22;40101;53.002;6.488;2022-10-16T14:28:21;17.30;99.90
54192;DHT22;40101;53.002;6.488;2022-10-16T14:30:56;17.20;99.90
54192;DHT22;40101;53.002;6.488;2022-10-16T14:38:39;16.90;99.90
54192;DHT22;40101;53.002;6.488;2022-10-16T14:41:06;16.90;99.90
54192;DHT22;40101;53.002;6.488;2022-10-16T14:43:43;16.80;99.90
54192;DHT22;40101;53.002;6.488;2022-10-16T14:46:18;16.80;99.90
54192;DHT22;40101;53.002;6.488;2022-10-16T14:48:50;16.80;99.90
54192;DHT22;40101;53.002;6.488;2022-10-16T14:51:20;16.70;99.90
54192;DHT22;40101;53.002;6.488;2022-10-16T14:53:46;16.70;99.90
54192;DHT22;40101;53.002;6.488;2022-10-16T14:56:16;16.70;99.90
54192;DHT22;40101;53.002;6.488;2022-10-16T14:58:42;16.70;99.90
54192;DHT22;40101;53.002;6.488;2022-10-16T15:01:10;16.60;99.90
54192;DHT22;40101;53.002;6.488;2022-10-16T15:03:37;16.60;99.90
54192;DHT22;40101;53.002;6.488;2022-10-16T15:06:03;16.70;99.90
54192;DHT22;40101;53.002;6.488;2022-10-16T15:08:29;16.50;99.90
54192;DHT22;40101;53.002;6.488;2022-10-16T15:10:54;16.50;99.90
54192;DHT22;40101;53.002;6.488;2022-10-16T15:13:20;16.40;99.90
54192;DHT22;40101;53.002;6.488;2022-10-16T15:15:47;16.40;99.90
54192;DHT22;40101;53.002;6.488;2022-10-16T15:18:14;16.40;99.90
54192;DHT22;40101;53.002;6.488;2022-10-16T15:20:45;16.40;99.90
54192;DHT22;40101;53.002;6.488;2022-10-16T15:23:18;16.40;99.90
54192;DHT22;40101;53.002;6.488;2022-10-16T15:25:45;16.30;99.90
54192;DHT22;40101;53.002;6.488;2022-10-16T15:28:12;16.20;99.90
54192;DHT22;40101;53.002;6.488;2022-10-16T15:30:38;16.20;99.90
54192;DHT22;40101;53.002;6.488;2022-10-16T15:33:05;16.10;99.90
54192;DHT22;40101;53.002;6.488;2022-10-16T15:35:31;16.10;99.90
54192;DHT22;40101;53.002;6.488;2022-10-16T15:37:57;16.00;99.90
54192;DHT22;40101;53.002;6.488;2022-10-16T15:40:23;15.90;99.90
54192;DHT22;40101;53.002;6.488;2022-10-16T15:42:48;15.90;99.90
54192;DHT22;40101;53.002;6.488;2022-10-16T15:45:17;15.90;99.90
54192;DHT22;40101;53.002;6.488;2022-10-16T15:47:44;15.80;99.90
54192;DHT22;40101;53.002;6.488;2022-10-16T15:50:14;15.80;99.90
54192;DHT22;40101;53.002;6.488;2022-10-16T15:52:40;15.70;99.90
54192;DHT22;40101;53.002;6.488;2022-10-16T15:55:08;15.70;99.90
54192;DHT22;40101;53.002;6.488;2022-10-16T15:57:33;15.60;99.90
54192;DHT22;40101;53.002;6.488;2022-10-16T15:59:59;15.60;99.90
54192;DHT22;40101;53.002;6.488;2022-10-16T16:02:25;15.50;99.90
54192;DHT22;40101;53.002;6.488;2022-10-16T16:04:50;15.50;99.90
54192;DHT22;40101;53.002;6.488;2022-10-16T16:07:16;15.40;99.90
54192;DHT22;40101;53.002;6.488;2022-10-16T16:09:41;15.30;99.90
54192;DHT22;40101;53.002;6.488;2022-10-16T16:12:09;15.30;99.90
54192;DHT22;40101;53.002;6.488;2022-10-16T16:14:34;15.20;99.90
54192;DHT22;40101;53.002;6.488;2022-10-16T16:17:00;15.20;99.90
54192;DHT22;40101;53.002;6.488;2022-10-16T16:19:27;15.10;99.90
54192;DHT22;40101;53.002;6.488;2022-10-16T16:21:52;15.10;99.90
54192;DHT22;40101;53.002;6.488;2022-10-16T16:24:18;15.00;99.90
54192;DHT22;40101;53.002;6.488;2022-10-16T16:26:44;14.90;99.90
54192;DHT22;40101;53.002;6.488;2022-10-16T16:29:14;14.80;99.90
54192;DHT22;40101;53.002;6.488;2022-10-16T16:31:41;14.90;99.90
54192;DHT22;40101;53.002;6.488;2022-10-16T16:34:07;14.70;99.90
54192;DHT22;40101;53.002;6.488;2022-10-16T16:36:33;14.60;99.90
54192;DHT22;40101;53.002;6.488;2022-10-16T16:38:59;14.40;99.90
54192;DHT22;40101;53.002;6.488;2022-10-16T16:41:26;14.40;99.90
54192;DHT22;40101;53.002;6.488;2022-10-16T16:43:54;14.30;99.90
54192;DHT22;40101;53.002;6.488;2022-10-16T16:46:20;14.20;99.90
54192;DHT22;40101;53.002;6.488;2022-10-16T16:48:46;14.10;99.90
54192;DHT22;40101;53.002;6.488;2022-10-16T16:51:14;14.10;99.90
54192;DHT22;40101;53.002;6.488;2022-10-16T16:53:46;14.10;99.90
54192;DHT22;40101;53.002;6.488;2022-10-16T16:56:13;13.90;99.90
54192;DHT22;40101;53.002;6.488;2022-10-16T16:58:39;13.90;99.90
54192;DHT22;40101;53.002;6.488;2022-10-16T17:01:05;13.80;99.90
54192;DHT22;40101;53.002;6.488;2022-10-16T17:03:33;13.70;99.90
54192;DHT22;40101;53.002;6.488;2022-10-16T17:06:04;13.70;99.90
54192;DHT22;40101;53.002;6.488;2022-10-16T17:08:31;13.70;99.90
54192;DHT22;40101;53.002;6.488;2022-10-16T17:10:57;13.70;99.90
54192;DHT22;40101;53.002;6.488;2022-10-16T17:13:28;13.60;99.90
54192;DHT22;40101;53.002;6.488;2022-10-16T17:15:54;13.50;99.90
54192;DHT22;40101;53.002;6.488;2022-10-16T17:18:21;13.50;99.90
54192;DHT22;40101;53.002;6.488;2022-10-16T17:20:47;13.40;99.90
54192;DHT22;40101;53.002;6.488;2022-10-16T17:23:15;13.40;99.90